Bookmark and Share
Track history (hours):
 

Clipper Grand

Last reported at 2014-Apr-10 19:17 UTC. Time now 2014-Apr-16 16:03 UTC.
Position N 37°18' E 024°10'.

Length 120 m; draft 7.2 m.

Type: Ship. MMSI: 311033700.

NotesDate/timePositionNaut miles runAvg speedWind from/ knotsBaromVisibWave heightAir tempDewpointWater temp
2014-Apr-10 19:17N 37°18' E 024°10'1715.8
2014-Apr-10 18:13N 37°31' E 024°23'1115.9
2014-Apr-10 17:33N 37°41' E 024°28'13315.8
2014-Apr-10 09:10N 39°41' E 025°41'2414.3
2014-Apr-10 07:31N 40°01' E 025°57'4312.9
2014-Apr-10 04:12N 40°25' E 026°43'  
2014-Apr-06 06:31N 37°53' E 024°35'1515.1
2014-Apr-06 05:34N 37°40' E 024°28'1514.8
2014-Apr-06 04:32N 37°27' E 024°17'1515.3
2014-Apr-06 03:33N 37°15' E 024°06'1515.3
2014-Apr-06 02:33N 37°02' E 023°55'1515.3
2014-Apr-06 01:33N 36°50' E 023°44'1615.3
2014-Apr-06 00:30N 36°38' E 023°31'1415.0
2014-Apr-05 23:33N 36°26' E 023°21'1613.9
2014-Apr-05 22:23N 36°24' E 023°01'  
2014-Apr-03 01:33N 38°05' E 009°03'2511.7
2014-Apr-02 23:28N 38°00' E 008°32'1010.9
2014-Apr-02 22:33N 37°58' E 008°20'2611.3
2014-Apr-02 20:12N 37°54' E 007°47'1810.9
2014-Apr-02 18:33N 37°50' E 007°24'1111.4
2014-Apr-02 17:33N 37°48' E 007°10'2710.9
2014-Apr-02 15:04N 37°43' E 006°37'19511.7
2014-Apr-01 22:26N 37°06' E 002°35'1112.3
2014-Apr-01 21:33N 37°03' E 002°22'1312.4
2014-Apr-01 20:33N 37°02' E 002°07'2411.8
2014-Apr-01 18:33N 36°57' E 001°38'1211.6
2014-Apr-01 17:33N 36°55' E 001°23'1311.3
2014-Apr-01 16:25N 36°52' E 001°08'1011.1
2014-Apr-01 15:31N 36°50' E 000°55'2511.8
2014-Apr-01 13:25N 36°45' E 000°25'  

Dump ship's entire track history

sailing weather and tide predictions

Clipper Grand — C6YJ5 — position and weather